^^
Grace C. Lehan Memorial Weather Station Historical Data
Daily Summary for February 23, 2021 Units:  Metric    English   Both
Daily Weekly Monthly Yearly
  High: Low: Average:
Temperature: 23.3 °C 20.5 °C 22.3 °C
Dew Point: 22.8 °C 20 °C 21.8 °C
Humidity: 97% 97% 97%
Wind Speed: 3.2km/h 0km/h 0.2km/h
Wind Gust: 16.1km/h - -
Wind- - South
Pressure: 1008.7 hPa 1006 hPa -
Precipitation: 49.28 mm    
 
 
Tabular Data for February 23, 2021
Time Temperature Dew Point Pressure Wind Wind Speed Wind Gust Humidity Rainfall Rate (Hourly) solar
00:09 20.6 °C 20.1 °C 1008 hPa Calm     97% 0 mm 0 W/m2
00:14 20.6 °C 20.1 °C 1008 hPa Calm     97% 0 mm 0 W/m2
00:19 20.5 °C 20.1 °C 1008 hPa Calm     97% 0 mm 0 W/m2
00:24 20.5 °C 20 °C 1008 hPa Calm     97% 0 mm 0 W/m2
00:29 20.5 °C 20 °C 1008 hPa Calm     97% 0 mm 0 W/m2
00:34 20.5 °C 20 °C 1008 hPa Calm     97% 0 mm 0 W/m2
00:39 20.5 °C 20 °C 1008 hPa Calm     97% 0 mm 0 W/m2
00:44 20.6 °C 20.1 °C 1008 hPa Calm     97% 0 mm 0 W/m2
00:49 20.6 °C 20.1 °C 1008 hPa Calm     97% 0 mm 0 W/m2
00:54 20.6 °C 20.1 °C 1008 hPa Calm     97% 0 mm 0 W/m2
00:59 20.7 °C 20.2 °C 1008 hPa Calm     97% 0 mm 0 W/m2
01:04 20.7 °C 20.2 °C 1008 hPa Calm     97% 0 mm 0 W/m2
01:09 20.8 °C 20.3 °C 1008 hPa Calm     97% 0 mm 0 W/m2
01:14 20.8 °C 20.3 °C 1008 hPa Calm     97% 0 mm 0 W/m2
01:19 20.7 °C 20.2 °C 1008 hPa Calm     97% 0 mm 0 W/m2
01:24 20.7 °C 20.2 °C 1008 hPa Calm     97% 0 mm 0 W/m2
01:29 20.7 °C 20.2 °C 1008.4 hPa Calm     97% 0 mm 0 W/m2
01:34 20.7 °C 20.2 °C 1008.4 hPa Calm     97% 0 mm 0 W/m2
01:39 20.6 °C 20.1 °C 1008 hPa Calm     97% 0 mm 0 W/m2
01:44 20.6 °C 20.1 °C 1008.4 hPa Calm     97% 0 mm 0 W/m2
01:49 20.6 °C 20.1 °C 1008.4 hPa Calm     97% 0 mm 0 W/m2
01:54 20.7 °C 20.2 °C 1008 hPa Calm     97% 0 mm 0 W/m2
01:59 20.7 °C 20.2 °C 1008 hPa Calm     97% 0 mm 0 W/m2
02:04 20.7 °C 20.2 °C 1008 hPa Calm     97% 0 mm 0 W/m2
02:09 20.7 °C 20.2 °C 1008 hPa Calm     97% 0 mm 0 W/m2
02:14 20.7 °C 20.2 °C 1008 hPa Calm     97% 0 mm 0 W/m2
02:19 20.7 °C 20.2 °C 1008 hPa Calm     97% 0 mm 0 W/m2
02:24 20.7 °C 20.2 °C 1008 hPa Calm     97% 0 mm 0 W/m2
02:29 20.8 °C 20.3 °C 1008 hPa Calm     97% 0 mm 0 W/m2
02:34 20.8 °C 20.3 °C 1008 hPa Calm     97% 0 mm 0 W/m2
02:39 20.8 °C 20.3 °C 1008 hPa Calm     97% 0 mm 0 W/m2
02:44 20.9 °C 20.4 °C 1008 hPa Calm     97% 0 mm 0 W/m2
02:49 21 °C 20.5 °C 1008 hPa Calm     97% 0 mm 0 W/m2
02:54 21.1 °C 20.6 °C 1008 hPa Calm     97% 0 mm 0 W/m2
02:59 21.1 °C 20.6 °C 1008 hPa Calm     97% 0 mm 0 W/m2
03:04 21.2 °C 20.7 °C 1008 hPa Calm     97% 0 mm 0 W/m2
03:09 21.2 °C 20.7 °C 1008 hPa Calm     97% 0 mm 0 W/m2
03:14 21.2 °C 20.7 °C 1008 hPa Calm     97% 0 mm 0 W/m2
03:19 21.2 °C 20.7 °C 1008 hPa Calm     97% 0 mm 0 W/m2
03:24 21.3 °C 20.8 °C 1008 hPa Calm     97% 0 mm 0 W/m2
03:29 21.3 °C 20.8 °C 1008 hPa Calm     97% 0 mm 0 W/m2
03:34 21.3 °C 20.9 °C 1008 hPa Calm     97% 0 mm 0 W/m2
03:39 21.4 °C 20.9 °C 1008 hPa SSE 0.2 km/h 3.2 km/h 97% 0 mm 0 W/m2
03:44 21.5 °C 21 °C 1008 hPa Calm   3.2 km/h 97% 0 mm 0 W/m2
03:49 21.6 °C 21.1 °C 1008 hPa SE 0.3 km/h 6.4 km/h 97% 0 mm 0 W/m2
03:54 21.7 °C 21.2 °C 1008 hPa Calm   6.4 km/h 97% 0 mm 0 W/m2
03:59 21.7 °C 21.2 °C 1008 hPa Calm   6.4 km/h 97% 0 mm 0 W/m2
04:09 21.8 °C 21.3 °C 1008 hPa Calm     97% 0 mm 0 W/m2
04:14 21.8 °C 21.3 °C 1008 hPa Calm     97% 0 mm 0 W/m2
04:19 21.9 °C 21.4 °C 1008 hPa Calm   1.6 km/h 97% 0 mm 0 W/m2
04:24 21.9 °C 21.4 °C 1008 hPa Calm   1.6 km/h 97% 0 mm 0 W/m2
04:29 21.9 °C 21.4 °C 1008 hPa Calm   1.6 km/h 97% 0 mm 0 W/m2
04:34 21.9 °C 21.4 °C 1008 hPa Calm   1.6 km/h 97% 0 mm 0 W/m2
04:39 21.9 °C 21.4 °C 1008 hPa Calm   3.2 km/h 97% 0 mm 0 W/m2
04:44 21.9 °C 21.4 °C 1008 hPa SE 0.3 km/h 4.8 km/h 97% 0 mm 0 W/m2
04:49 21.9 °C 21.4 °C 1008 hPa Calm   4.8 km/h 97% 0 mm 0 W/m2
04:54 21.9 °C 21.4 °C 1008 hPa Calm   4.8 km/h 97% 0 mm 0 W/m2
04:59 21.9 °C 21.4 °C 1008 hPa Calm   4.8 km/h 97% 0 mm 0 W/m2
05:04 21.9 °C 21.4 °C 1008 hPa Calm   4.8 km/h 97% 0 mm 0 W/m2
05:09 21.9 °C 21.4 °C 1008 hPa Calm   3.2 km/h 97% 0 mm 0 W/m2
05:14 21.9 °C 21.4 °C 1008.4 hPa SE 0.2 km/h 3.2 km/h 97% 0 mm 0 W/m2
05:19 21.9 °C 21.4 °C 1008.4 hPa Calm   3.2 km/h 97% 0 mm 0 W/m2
05:24 21.9 °C 21.4 °C 1008.4 hPa Calm   3.2 km/h 97% 0 mm 0 W/m2
05:29 21.9 °C 21.4 °C 1008.4 hPa SE 0.5 km/h 8 km/h 97% 0 mm 0 W/m2
05:34 21.9 °C 21.4 °C 1008.4 hPa Calm   8 km/h 97% 0 mm 0 W/m2
05:39 21.9 °C 21.4 °C 1008 hPa Calm   1.6 km/h 97% 0 mm 0 W/m2
05:44 21.9 °C 21.4 °C 1008.4 hPa Calm   1.6 km/h 97% 0 mm 0 W/m2
05:49 21.9 °C 21.4 °C 1008 hPa Calm   1.6 km/h 97% 0 mm 0 W/m2
05:54 21.9 °C 21.4 °C 1008 hPa Calm   1.6 km/h 97% 0 mm 0 W/m2
05:59 21.9 °C 21.4 °C 1008.4 hPa Calm   1.6 km/h 97% 0.25 mm 0 W/m2
06:04 21.9 °C 21.4 °C 1008.4 hPa Calm   1.6 km/h 97% 0.51 mm 0 W/m2
06:09 21.9 °C 21.4 °C 1008.4 hPa Calm     97% 0.51 mm 5 W/m2
06:14 21.9 °C 21.4 °C 1008.4 hPa SE 0.3 km/h 9.7 km/h 97% 0.76 mm 7 W/m2
06:19 21.9 °C 21.4 °C 1008.4 hPa Calm   9.7 km/h 97% 0.76 mm 7 W/m2
06:24 21.9 °C 21.4 °C 1008.4 hPa Calm   9.7 km/h 97% 0.76 mm 9 W/m2
06:29 21.9 °C 21.4 °C 1008.4 hPa Calm   9.7 km/h 97% 0.76 mm 26 W/m2
06:34 21.9 °C 21.4 °C 1008.4 hPa Calm   9.7 km/h 97% 0.76 mm 23 W/m2
06:39 21.9 °C 21.4 °C 1008.4 hPa Calm     97% 0.76 mm 32 W/m2
06:44 21.9 °C 21.4 °C 1008.4 hPa Calm     97% 0.76 mm 28 W/m2
06:49 21.9 °C 21.4 °C 1008.4 hPa Calm     97% 0.76 mm 26 W/m2
06:54 21.9 °C 21.4 °C 1008.4 hPa Calm     97% 0.76 mm 153 W/m2
06:59 22.1 °C 21.6 °C 1008.4 hPa Calm     97% 0.76 mm 167 W/m2
07:04 22.3 °C 21.8 °C 1008.4 hPa Calm     97% 0.76 mm 165 W/m2
07:09 22.3 °C 21.8 °C 1008.4 hPa Calm     97% 0.51 mm 88 W/m2
07:14 22.3 °C 21.8 °C 1008.7 hPa Calm     97% 0.51 mm 98 W/m2
07:19 22.3 °C 21.8 °C 1008.4 hPa Calm     97% 0.51 mm 116 W/m2
07:24 22.3 °C 21.8 °C 1008.4 hPa Calm   3.2 km/h 97% 0.51 mm 132 W/m2
07:29 22.3 °C 21.8 °C 1008.4 hPa SE 0.5 km/h 8 km/h 97% 0.51 mm 132 W/m2
07:34 22.4 °C 21.9 °C 1008.4 hPa Calm   8 km/h 97% 0.51 mm 86 W/m2
07:39 22.4 °C 21.9 °C 1008.4 hPa SE 0.5 km/h 9.7 km/h 97% 0 mm 142 W/m2
07:44 22.4 °C 21.9 °C 1008.4 hPa Calm   9.7 km/h 97% 0 mm 74 W/m2
07:49 22.6 °C 22.1 °C 1008.4 hPa Calm   9.7 km/h 97% 0 mm 62 W/m2
07:54 22.6 °C 22.1 °C 1008.4 hPa Calm   9.7 km/h 97% 0 mm 44 W/m2
07:59 22.5 °C 22 °C 1008.7 hPa Calm   9.7 km/h 97% 0 mm 42 W/m2
08:00 22.5 °C 22 °C 1008.7 hPa Calm   9.7 km/h 97% 0 mm 30 W/m2
08:09 22.5 °C 22 °C 1008.7 hPa Calm     97% 0.25 mm 23 W/m2
08:14 22.5 °C 22 °C 1008.7 hPa Calm   1.6 km/h 97% 0.25 mm 26 W/m2
08:19 22.5 °C 22 °C 1008.7 hPa SE 0.2 km/h 4.8 km/h 97% 0.51 mm 53 W/m2
08:24 22.5 °C 22 °C 1008.7 hPa SE 0.2 km/h 4.8 km/h 97% 0.51 mm 62 W/m2
08:29 22.5 °C 22 °C 1008.7 hPa Calm   4.8 km/h 97% 0.76 mm 62 W/m2
08:34 22.6 °C 22.1 °C 1008.7 hPa Calm   4.8 km/h 97% 0.76 mm 56 W/m2
08:39 22.6 °C 22.1 °C 1008.7 hPa Calm     97% 0.76 mm 49 W/m2
08:44 22.6 °C 22.1 °C 1008.7 hPa Calm     97% 0.76 mm 47 W/m2
08:49 22.6 °C 22.1 °C 1008.7 hPa Calm     97% 1.02 mm 46 W/m2
08:54 22.6 °C 22.1 °C 1008.7 hPa Calm     97% 1.02 mm 40 W/m2
08:59 22.6 °C 22.1 °C 1008.7 hPa Calm   3.2 km/h 97% 1.27 mm 37 W/m2
09:04 22.6 °C 22.1 °C 1008.7 hPa Calm   3.2 km/h 97% 1.27 mm 33 W/m2
09:09 22.6 °C 22.1 °C 1008.7 hPa Calm     97% 1.52 mm 28 W/m2
09:14 22.6 °C 22.1 °C 1008.4 hPa Calm     97% 1.52 mm 23 W/m2
09:19 22.6 °C 22.1 °C 1008.4 hPa East 0.5 km/h 6.4 km/h 97% 2.03 mm 23 W/m2
09:24 22.6 °C 22.1 °C 1008.4 hPa Calm   6.4 km/h 97% 2.29 mm 26 W/m2
09:29 22.6 °C 22.1 °C 1008.4 hPa Calm   6.4 km/h 97% 2.79 mm 37 W/m2
09:34 22.6 °C 22.1 °C 1008.4 hPa Calm   6.4 km/h 97% 2.79 mm 46 W/m2
09:39 22.6 °C 22.1 °C 1008.4 hPa Calm     97% 2.29 mm 49 W/m2
09:44 22.6 °C 22.1 °C 1008.7 hPa Calm     97% 2.29 mm 49 W/m2
09:49 22.6 °C 22.1 °C 1008.7 hPa Calm     97% 2.54 mm 42 W/m2
09:54 22.6 °C 22.1 °C 1008.7 hPa Calm     97% 2.54 mm 51 W/m2
09:59 22.7 °C 22.2 °C 1008.4 hPa Calm     97% 2.79 mm 83 W/m2
10:04 22.7 °C 22.2 °C 1008.4 hPa East 0.2 km/h 3.2 km/h 97% 2.79 mm 98 W/m2
10:09 22.8 °C 22.3 °C 1008.4 hPa Calm   3.2 km/h 97% 2.29 mm 70 W/m2
10:14 22.8 °C 22.3 °C 1008.4 hPa Calm   3.2 km/h 97% 2.29 mm 91 W/m2
10:19 22.8 °C 22.3 °C 1008.4 hPa East 0.3 km/h 6.4 km/h 97% 2.29 mm 102 W/m2
10:24 22.9 °C 22.4 °C 1008.4 hPa ENE 0.6 km/h 8 km/h 97% 2.29 mm 105 W/m2
10:29 23 °C 22.5 °C 1008.4 hPa Calm   8 km/h 97% 2.29 mm 125 W/m2
10:34 23.1 °C 22.6 °C 1008.4 hPa ENE 1.3 km/h 8 km/h 97% 2.29 mm 125 W/m2
10:39 23.1 °C 22.6 °C 1008 hPa ENE 0.2 km/h 8 km/h 97% 0.76 mm 114 W/m2
10:44 23.2 °C 22.7 °C 1008 hPa ENE 0.6 km/h 8 km/h 97% 0.76 mm 88 W/m2
10:49 23.2 °C 22.7 °C 1008 hPa ENE 0.2 km/h 8 km/h 97% 0.76 mm 69 W/m2
10:54 23.2 °C 22.7 °C 1008 hPa East 0.2 km/h 8 km/h 97% 1.02 mm 83 W/m2
10:59 23.2 °C 22.7 °C 1008 hPa East 0.5 km/h 8 km/h 97% 1.02 mm 83 W/m2
11:04 23.2 °C 22.7 °C 1008 hPa Calm   8 km/h 97% 1.02 mm 76 W/m2
11:08 23.2 °C 22.7 °C 1007.7 hPa ENE 0.5 km/h 4.8 km/h 97% 0.25 mm 54 W/m2
11:14 23.1 °C 22.6 °C 1007.7 hPa ENE 0.6 km/h 8 km/h 97% 0.25 mm 35 W/m2
11:19 23.1 °C 22.6 °C 1007.7 hPa ENE 0.8 km/h 8 km/h 97% 0.25 mm 32 W/m2
11:24 23.1 °C 22.6 °C 1007.3 hPa ENE 0.8 km/h 9.7 km/h 97% 0.51 mm 37 W/m2
11:29 23 °C 22.5 °C 1007.3 hPa ENE 0.2 km/h 9.7 km/h 97% 0.51 mm 49 W/m2
11:34 23.1 °C 22.6 °C 1007.3 hPa NE 0.8 km/h 9.7 km/h 97% 0.51 mm 65 W/m2
11:39 23.1 °C 22.6 °C 1007.3 hPa ENE 0.3 km/h 8 km/h 97% 0.76 mm 18 W/m2
11:44 23 °C 22.5 °C 1007.3 hPa Calm   8 km/h 97% 1.78 mm 9 W/m2
11:49 23 °C 22.5 °C 1007.3 hPa Calm   8 km/h 97% 2.54 mm 25 W/m2
11:54 22.9 °C 22.4 °C 1007.3 hPa Calm   8 km/h 97% 4.83 mm 19 W/m2
11:59 22.9 °C 22.4 °C 1007.7 hPa ENE 0.6 km/h 8 km/h 97% 9.91 mm 19 W/m2
12:00 22.9 °C 22.4 °C 1007.7 hPa East 3.2 km/h 8 km/h 97% 9.91 mm 18 W/m2
12:09 22.7 °C 22.2 °C 1007.3 hPa Calm     97% 13.97 mm 21 W/m2
12:14 22.7 °C 22.2 °C 1007.3 hPa South 1.9 km/h 9.7 km/h 97% 15.24 mm 33 W/m2
12:19 22.6 °C 22.1 °C 1007.3 hPa Calm   9.7 km/h 97% 15.49 mm 49 W/m2
12:24 22.7 °C 22.2 °C 1007.3 hPa SSE 0.3 km/h 9.7 km/h 97% 15.75 mm 54 W/m2
12:29 22.7 °C 22.2 °C 1007.3 hPa Calm   9.7 km/h 97% 17.02 mm 18 W/m2
12:34 22.7 °C 22.2 °C 1007 hPa Calm   9.7 km/h 97% 19.3 mm 23 W/m2
12:39 22.7 °C 22.2 °C 1007 hPa SSE 0.2 km/h 3.2 km/h 97% 22.35 mm 23 W/m2
12:44 22.7 °C 22.2 °C 1007.3 hPa SSE 0.2 km/h 6.4 km/h 97% 27.69 mm 18 W/m2
12:49 22.7 °C 22.2 °C 1007 hPa ESE 1 km/h 9.7 km/h 97% 29.21 mm 54 W/m2
12:54 22.5 °C 22 °C 1007 hPa South 0.8 km/h 16.1 km/h 97% 30.23 mm 54 W/m2
12:59 22.5 °C 22 °C 1007.3 hPa South 0.2 km/h 16.1 km/h 97% 30.99 mm 67 W/m2
13:04 22.5 °C 22 °C 1007 hPa SE 0.5 km/h 16.1 km/h 97% 30.99 mm 67 W/m2
13:09 22.4 °C 21.9 °C 1007 hPa Calm   8 km/h 97% 15.24 mm 79 W/m2
13:14 22.4 °C 21.9 °C 1007 hPa ESE 0.2 km/h 8 km/h 97% 15.75 mm 65 W/m2
13:19 22.4 °C 21.9 °C 1007 hPa Calm   8 km/h 97% 16.26 mm 49 W/m2
13:24 22.4 °C 21.9 °C 1007 hPa Calm   8 km/h 97% 17.02 mm 62 W/m2
13:29 22.4 °C 21.9 °C 1007 hPa Calm   8 km/h 97% 17.78 mm 53 W/m2
13:33 22.4 °C 21.9 °C 1007 hPa Calm   8 km/h 97% 18.29 mm 35 W/m2
13:39 22.4 °C 21.9 °C 1007 hPa Calm     97% 18.8 mm 62 W/m2
13:44 22.4 °C 21.9 °C 1007 hPa ESE 0.5 km/h 6.4 km/h 97% 19.81 mm 62 W/m2
13:49 22.4 °C 21.9 °C 1007 hPa Calm   6.4 km/h 97% 20.07 mm 44 W/m2
13:54 22.4 °C 21.9 °C 1007 hPa ESE 0.2 km/h 6.4 km/h 97% 20.57 mm 51 W/m2
13:59 22.4 °C 21.9 °C 1007 hPa Calm   6.4 km/h 97% 21.34 mm 51 W/m2
14:04 22.4 °C 21.9 °C 1006.7 hPa Calm   6.4 km/h 97% 21.34 mm 39 W/m2
14:09 22.4 °C 21.9 °C 1006.7 hPa Calm     97% 7.11 mm 39 W/m2
14:14 22.4 °C 21.9 °C 1006.7 hPa Calm     97% 7.11 mm 37 W/m2
14:19 22.4 °C 21.9 °C 1006.7 hPa Calm     97% 7.11 mm 40 W/m2
14:24 22.4 °C 21.9 °C 1006.7 hPa ESE 0.3 km/h 8 km/h 97% 7.11 mm 44 W/m2
14:29 22.3 °C 21.8 °C 1006.7 hPa ESE 0.2 km/h 8 km/h 97% 7.37 mm 39 W/m2
14:33 22.3 °C 21.8 °C 1006.7 hPa Calm   8 km/h 97% 7.37 mm 33 W/m2
14:39 22.4 °C 21.9 °C 1006.7 hPa ESE 0.6 km/h 8 km/h 97% 4.57 mm 74 W/m2
14:44 22.4 °C 21.9 °C 1006.3 hPa ESE 0.6 km/h 9.7 km/h 97% 4.57 mm 104 W/m2
14:49 22.5 °C 22 °C 1006.3 hPa Calm   9.7 km/h 97% 4.83 mm 69 W/m2
14:54 22.6 °C 22.1 °C 1006.3 hPa Calm   9.7 km/h 97% 4.83 mm 69 W/m2
14:59 22.6 °C 22.1 °C 1006.3 hPa Calm   9.7 km/h 97% 4.83 mm 76 W/m2
15:04 22.7 °C 22.2 °C 1006.3 hPa ESE 0.3 km/h 9.7 km/h 97% 4.83 mm 62 W/m2
15:09 22.7 °C 22.2 °C 1006.3 hPa ESE 0.6 km/h 6.4 km/h 97% 1.52 mm 47 W/m2
15:14 22.7 °C 22.2 °C 1006.3 hPa Calm   6.4 km/h 97% 1.52 mm 42 W/m2
15:19 22.7 °C 22.2 °C 1006.3 hPa Calm   6.4 km/h 97% 2.29 mm 56 W/m2
15:24 22.7 °C 22.2 °C 1006.3 hPa Calm   6.4 km/h 97% 2.29 mm 69 W/m2
15:29 22.7 °C 22.2 °C 1006.3 hPa Calm   6.4 km/h 97% 2.29 mm 83 W/m2
15:34 22.8 °C 22.3 °C 1006.3 hPa Calm   6.4 km/h 97% 2.29 mm 91 W/m2
15:39 22.8 °C 22.3 °C 1006.3 hPa Calm     97% 1.78 mm 86 W/m2
15:44 22.9 °C 22.4 °C 1006.3 hPa Calm     97% 1.78 mm 125 W/m2
15:49 22.9 °C 22.4 °C 1006.3 hPa Calm     97% 1.78 mm 114 W/m2
15:54 23 °C 22.5 °C 1006.3 hPa Calm     97% 1.78 mm 35 W/m2
15:59 23 °C 22.5 °C 1006.3 hPa Calm     97% 2.29 mm 46 W/m2
16:00 23 °C 22.5 °C 1006.3 hPa Calm     97% 2.29 mm 28 W/m2
16:09 22.9 °C 22.4 °C 1006.3 hPa Calm     97% 1.52 mm 40 W/m2
16:14 22.9 °C 22.4 °C 1006.3 hPa Calm     97% 1.52 mm 62 W/m2
16:19 22.9 °C 22.4 °C 1006.3 hPa Calm     97% 1.52 mm 54 W/m2
16:24 22.9 °C 22.4 °C 1006.3 hPa Calm     97% 1.52 mm 46 W/m2
16:29 22.9 °C 22.4 °C 1006.3 hPa Calm     97% 1.52 mm 32 W/m2
16:34 22.8 °C 22.3 °C 1006.3 hPa Calm     97% 1.52 mm 30 W/m2
16:39 22.8 °C 22.3 °C 1006.3 hPa Calm     97% 1.02 mm 30 W/m2
16:44 22.8 °C 22.3 °C 1006.3 hPa Calm     97% 1.02 mm 32 W/m2
16:49 22.8 °C 22.3 °C 1006.3 hPa Calm   1.6 km/h 97% 1.27 mm 40 W/m2
16:54 22.9 °C 22.4 °C 1006.3 hPa ESE 0.3 km/h 4.8 km/h 97% 1.27 mm 60 W/m2
16:59 22.9 °C 22.4 °C 1006.3 hPa Calm   4.8 km/h 97% 1.27 mm 183 W/m2
17:04 22.9 °C 22.4 °C 1006 hPa Calm   4.8 km/h 97% 1.27 mm 234 W/m2
17:09 23.1 °C 22.6 °C 1006 hPa Calm     97% 0.76 mm 171 W/m2
17:14 23.3 °C 22.8 °C 1006 hPa Calm     97% 0.76 mm 90 W/m2
17:19 23.3 °C 22.8 °C 1006 hPa Calm     97% 0.76 mm 53 W/m2
17:24 23.3 °C 22.8 °C 1006 hPa ESE 0.2 km/h 3.2 km/h 97% 0.76 mm 26 W/m2
17:29 23.3 °C 22.8 °C 1006 hPa Calm   3.2 km/h 97% 0.76 mm 16 W/m2
17:34 23.2 °C 22.7 °C 1006 hPa Calm   3.2 km/h 97% 0.76 mm 16 W/m2
17:39 23.1 °C 22.6 °C 1006 hPa Calm     97% 0.76 mm 16 W/m2
17:44 23.1 °C 22.6 °C 1006 hPa Calm     97% 0.76 mm 16 W/m2
17:49 23 °C 22.5 °C 1006 hPa Calm     97% 0.76 mm 25 W/m2
17:54 23 °C 22.5 °C 1006 hPa Calm     97% 1.02 mm 25 W/m2
17:59 22.9 °C 22.4 °C 1006 hPa Calm     97% 1.02 mm 12 W/m2
18:04 22.9 °C 22.4 °C 1006 hPa Calm     97% 1.02 mm 9 W/m2
18:09 22.9 °C 22.4 °C 1006 hPa ESE 0.2 km/h 4.8 km/h 97% 0.25 mm 12 W/m2
18:14 22.9 °C 22.4 °C 1006 hPa Calm   4.8 km/h 97% 0.25 mm 18 W/m2
18:19 22.9 °C 22.4 °C 1006 hPa Calm   4.8 km/h 97% 0.25 mm 18 W/m2
18:24 22.9 °C 22.4 °C 1006 hPa Calm   4.8 km/h 97% 0.25 mm 19 W/m2
18:29 22.9 °C 22.4 °C 1006 hPa Calm   4.8 km/h 97% 0.25 mm 16 W/m2
18:34 23 °C 22.5 °C 1006.3 hPa Calm   4.8 km/h 97% 0.25 mm 18 W/m2
18:39 23 °C 22.5 °C 1006 hPa Calm     97% 0.25 mm 7 W/m2
18:44 23.1 °C 22.6 °C 1006 hPa Calm     97% 0.25 mm 9 W/m2
18:49 23.1 °C 22.6 °C 1006 hPa Calm     97% 0.25 mm 12 W/m2
18:54 23.1 °C 22.6 °C 1006 hPa Calm     97% 0.25 mm 11 W/m2
18:59 23.1 °C 22.6 °C 1006 hPa Calm     97% 0.25 mm 7 W/m2
19:04 23.1 °C 22.6 °C 1006 hPa Calm     97% 0.25 mm 5 W/m2
19:09 23.1 °C 22.6 °C 1006 hPa Calm     97% 0 mm 0 W/m2
19:14 23.1 °C 22.6 °C 1006 hPa Calm     97% 0 mm 0 W/m2
19:19 23.1 °C 22.6 °C 1006 hPa Calm     97% 0 mm 0 W/m2
19:24 23.1 °C 22.6 °C 1006 hPa Calm     97% 0 mm 0 W/m2
19:29 23.1 °C 22.6 °C 1006 hPa Calm     97% 0 mm 0 W/m2
19:34 23.1 °C 22.6 °C 1006 hPa Calm     97% 0 mm 0 W/m2
19:39 23.1 °C 22.6 °C 1006 hPa Calm     97% 0 mm 0 W/m2
19:44 23.1 °C 22.6 °C 1006 hPa Calm     97% 0.25 mm 0 W/m2
19:49 23 °C 22.5 °C 1006 hPa Calm     97% 2.03 mm 0 W/m2
19:54 23 °C 22.5 °C 1006 hPa Calm     97% 2.29 mm 0 W/m2
19:59 23 °C 22.5 °C 1006 hPa Calm     97% 2.29 mm 0 W/m2
20:09 23 °C 22.5 °C 1006 hPa Calm     97% 2.29 mm 0 W/m2
20:14 23 °C 22.5 °C 1006 hPa Calm     97% 2.29 mm 0 W/m2
20:19 23 °C 22.5 °C 1006 hPa Calm     97% 2.29 mm 0 W/m2
20:24 22.9 °C 22.4 °C 1006 hPa Calm     97% 2.29 mm 0 W/m2
20:29 22.9 °C 22.4 °C 1006 hPa Calm     97% 2.29 mm 0 W/m2
20:34 22.9 °C 22.4 °C 1006 hPa Calm     97% 2.29 mm 0 W/m2
20:39 22.9 °C 22.4 °C 1006 hPa Calm     97% 2.29 mm 0 W/m2
20:44 22.9 °C 22.4 °C 1006.3 hPa Calm     97% 2.29 mm 0 W/m2
20:49 22.9 °C 22.4 °C 1006.3 hPa Calm     97% 2.29 mm 0 W/m2
20:54 22.9 °C 22.4 °C 1006.3 hPa Calm     97% 2.29 mm 0 W/m2
20:59 22.9 °C 22.4 °C 1006.3 hPa Calm     97% 2.29 mm 0 W/m2
21:04 22.9 °C 22.4 °C 1006.3 hPa Calm     97% 2.29 mm 0 W/m2
21:09 22.9 °C 22.4 °C 1006.3 hPa Calm     97% 0 mm 0 W/m2
21:14 22.9 °C 22.4 °C 1006.3 hPa Calm     97% 0 mm 0 W/m2
21:19 22.9 °C 22.4 °C 1006.3 hPa Calm     97% 0 mm 0 W/m2
21:24 22.9 °C 22.4 °C 1006.3 hPa Calm     97% 0 mm 0 W/m2
21:29 22.9 °C 22.4 °C 1006.3 hPa Calm     97% 0 mm 0 W/m2
21:34 22.9 °C 22.4 °C 1006.3 hPa Calm     97% 0 mm 0 W/m2
21:39 22.9 °C 22.4 °C 1006.3 hPa Calm     97% 0 mm 0 W/m2
21:44 22.9 °C 22.4 °C 1006 hPa Calm     97% 0 mm 0 W/m2
21:49 22.9 °C 22.4 °C 1006 hPa Calm     97% 0.25 mm 0 W/m2
21:54 22.9 °C 22.4 °C 1006 hPa WSW 0.8 km/h 8 km/h 97% 0.25 mm 0 W/m2
21:59 22.8 °C 22.3 °C 1006 hPa WNW 2.4 km/h 11.3 km/h 97% 0.25 mm 0 W/m2
22:04 22.8 °C 22.3 °C 1006 hPa WNW 0.6 km/h 11.3 km/h 97% 0.25 mm 0 W/m2
22:09 22.7 °C 22.2 °C 1006 hPa WNW 0.3 km/h 8 km/h 97% 0.25 mm 0 W/m2
22:14 22.6 °C 22.1 °C 1006 hPa NW 2.3 km/h 9.7 km/h 97% 0.25 mm 0 W/m2
22:19 22.5 °C 22 °C 1006 hPa NW 1.9 km/h 9.7 km/h 97% 0.25 mm 0 W/m2
22:24 22.4 °C 21.9 °C 1006 hPa NW 2.4 km/h 9.7 km/h 97% 0.25 mm 0 W/m2
22:29 22.3 °C 21.8 °C 1006 hPa NW 1.3 km/h 9.7 km/h 97% 0.51 mm 0 W/m2
22:34 22.3 °C 21.8 °C 1006 hPa NW 1.3 km/h 11.3 km/h 97% 0.51 mm 0 W/m2
22:39 22.2 °C 21.7 °C 1006 hPa NNW 1.4 km/h 12.9 km/h 97% 0.51 mm 0 W/m2
22:44 22.1 °C 21.7 °C 1006 hPa NNW 1 km/h 12.9 km/h 97% 0.51 mm 0 W/m2
22:49 22.1 °C 21.6 °C 1006.3 hPa NNW 1.8 km/h 12.9 km/h 97% 0.51 mm 0 W/m2
22:54 22 °C 21.5 °C 1006.3 hPa NNW 1.1 km/h 12.9 km/h 97% 0.51 mm 0 W/m2
22:59 21.9 °C 21.4 °C 1006.3 hPa NNW 0.5 km/h 12.9 km/h 97% 0.51 mm 0 W/m2
23:04 21.9 °C 21.4 °C 1006.3 hPa WNW 1.3 km/h 12.9 km/h 97% 0.51 mm 0 W/m2
23:09 21.9 °C 21.4 °C 1006.3 hPa NW 1 km/h 11.3 km/h 97% 0.25 mm 0 W/m2
23:14 21.9 °C 21.4 °C 1006.3 hPa NW 0.6 km/h 11.3 km/h 97% 0.25 mm 0 W/m2
23:19 21.8 °C 21.3 °C 1006.3 hPa NW 0.6 km/h 11.3 km/h 97% 0.25 mm 0 W/m2
23:24 21.8 °C 21.3 °C 1006.3 hPa NW 1.3 km/h 11.3 km/h 97% 0.25 mm 0 W/m2
23:29 21.8 °C 21.3 °C 1006.3 hPa NW 2.9 km/h 16.1 km/h 97% 0.25 mm 0 W/m2
23:34 21.7 °C 21.2 °C 1006.7 hPa NW 0.5 km/h 16.1 km/h 97% 0.25 mm 0 W/m2
23:39 21.7 °C 21.2 °C 1006.7 hPa NW 0.8 km/h 11.3 km/h 97% 0 mm 0 W/m2
23:44 21.7 °C 21.2 °C 1006.7 hPa NW 0.5 km/h 11.3 km/h 97% 0 mm 0 W/m2
23:49 21.6 °C 21.2 °C 1006.7 hPa NW 0.6 km/h 11.3 km/h 97% 0 mm 0 W/m2
23:54 21.6 °C 21.1 °C 1006.7 hPa NW 1.8 km/h 11.3 km/h 97% 0 mm 0 W/m2
23:59 21.6 °C 21.1 °C 1006.7 hPa WNW 3.2 km/h 12.9 km/h 97% 0 mm 0 W/m2
Hartford County Weather
Compliments of Weather Underground - 2 mb